createdAt,value
2022-08-09T00:00:57.228Z,101823.59
2022-08-09T00:04:03.532Z,101824.88
2022-08-09T00:06:19.039Z,101824.06
2022-08-09T00:08:51.872Z,101827.47
2022-08-09T00:11:24.775Z,101829.84
2022-08-09T00:13:55.709Z,101828.94
2022-08-09T00:16:26.197Z,101828.84
2022-08-09T00:19:09.392Z,101820.69
2022-08-09T00:21:38.640Z,101825.03
2022-08-09T00:24:27.293Z,101820.66
2022-08-09T00:26:55.937Z,101820.53
2022-08-09T00:29:39.570Z,101818.22
2022-08-09T00:32:13.031Z,101820.75
2022-08-09T00:34:53.048Z,101814.41
2022-08-09T00:37:20.352Z,101809.34
2022-08-09T00:40:13.730Z,101810.84
2022-08-09T00:44:14.882Z,101802.38
2022-08-09T00:45:22.250Z,101803.31
2022-08-09T00:47:49.735Z,101795.59
2022-08-09T00:50:17.249Z,101809.41
2022-08-09T00:52:44.652Z,101803.78
2022-08-09T00:55:32.604Z,101805.53
2022-08-09T00:58:00.265Z,101810.06
2022-08-09T01:00:28.271Z,101816.75
2022-08-09T01:03:20.050Z,101808.91
2022-08-09T01:05:57.411Z,101816.03
2022-08-09T01:08:49.492Z,101817.09
2022-08-09T01:11:38.945Z,101809.91
2022-08-09T01:14:11.780Z,101817.19
2022-08-09T01:16:47.203Z,101812.50
2022-08-09T01:19:42.864Z,101812.09
2022-08-09T01:22:38.105Z,101815.97
2022-08-09T01:25:19.053Z,101811.38
2022-08-09T01:27:51.284Z,101807.47
2022-08-09T01:30:33.732Z,101811.06
2022-08-09T01:33:04.505Z,101807.31
2022-08-09T01:36:00.157Z,101812.72
2022-08-09T01:38:30.148Z,101811.75
2022-08-09T01:41:09.393Z,101810.63
2022-08-09T01:43:41.985Z,101811.94
2022-08-09T01:46:25.013Z,101814.41
2022-08-09T01:49:00.319Z,101808.44
2022-08-09T01:51:53.515Z,101810.50
2022-08-09T01:54:25.052Z,101809.84
2022-08-09T01:56:52.781Z,101798.53
2022-08-09T01:59:21.544Z,101815.19
2022-08-09T02:01:59.872Z,101802.59
2022-08-09T02:04:30.197Z,101806.91
2022-08-09T02:07:18.286Z,101800.63
2022-08-09T02:10:04.103Z,101809.25
2022-08-09T02:12:35.008Z,101799.69
2022-08-09T02:15:06.232Z,101811.69
2022-08-09T02:18:09.992Z,101806.00
2022-08-09T02:20:32.604Z,101804.38
2022-08-09T02:23:07.154Z,101806.69
2022-08-09T02:25:42.174Z,101809.25
2022-08-09T02:28:17.929Z,101804.94
2022-08-09T02:30:51.883Z,101809.00
2022-08-09T02:33:22.964Z,101803.44
2022-08-09T02:36:02.633Z,101793.63
2022-08-09T02:38:34.768Z,101804.94
2022-08-09T02:41:10.854Z,101800.25
2022-08-09T02:43:53.936Z,101802.03
2022-08-09T02:46:28.468Z,101794.56
2022-08-09T02:48:59.543Z,101795.13
2022-08-09T02:51:28.102Z,101799.00
2022-08-09T02:54:05.372Z,101790.38
2022-08-09T02:56:34.132Z,101787.81
2022-08-09T02:59:05.268Z,101789.34
2022-08-09T03:01:58.598Z,101789.22
2022-08-09T03:04:26.282Z,101787.69
2022-08-09T03:06:57.263Z,101795.47
2022-08-09T03:09:27.059Z,101793.75
2022-08-09T03:12:06.011Z,101789.09
2022-08-09T03:14:36.741Z,101798.50
2022-08-09T03:17:05.478Z,101785.72
2022-08-09T03:19:58.593Z,101802.72
2022-08-09T03:22:25.665Z,101797.25
2022-08-09T03:25:06.002Z,101799.81
2022-08-09T03:27:52.346Z,101797.38
2022-08-09T03:30:29.268Z,101801.19
2022-08-09T03:33:05.523Z,101798.72
2022-08-09T03:36:13.569Z,101805.63
2022-08-09T03:38:28.857Z,101798.63
2022-08-09T03:40:58.273Z,101810.97
2022-08-09T03:43:31.633Z,101807.34
2022-08-09T03:46:20.666Z,101802.81
2022-08-09T03:48:57.609Z,101803.06
2022-08-09T03:51:56.962Z,101798.75
2022-08-09T03:54:14.749Z,101790.72
2022-08-09T03:56:42.856Z,101791.88
2022-08-09T03:59:20.821Z,101788.56
2022-08-09T04:01:50.488Z,101785.97
2022-08-09T04:04:18.381Z,101794.44
2022-08-09T04:06:49.028Z,101797.09
2022-08-09T04:09:41.637Z,101797.41
2022-08-09T04:12:11.773Z,101801.22
2022-08-09T04:15:00.188Z,101805.69
2022-08-09T04:17:29.572Z,101808.53
2022-08-09T04:19:57.063Z,101812.84
2022-08-09T04:22:24.497Z,101817.09
2022-08-09T04:24:55.279Z,101816.06
2022-08-09T04:27:23.809Z,101815.69
2022-08-09T04:29:51.260Z,101812.28
2022-08-09T04:32:31.468Z,101815.47
2022-08-09T04:35:01.518Z,101820.84
2022-08-09T04:37:45.901Z,101824.84
2022-08-09T04:40:19.708Z,101830.72
2022-08-09T04:43:01.822Z,101833.66
2022-08-09T04:45:35.782Z,101827.25
2022-08-09T04:48:12.590Z,101825.47
2022-08-09T04:50:40.433Z,101826.28
2022-08-09T04:53:11.489Z,101828.81
2022-08-09T04:55:42.067Z,101830.53
2022-08-09T04:58:31.711Z,101830.88
2022-08-09T05:01:01.319Z,101831.66
2022-08-09T05:03:40.034Z,101830.22
2022-08-09T05:06:26.803Z,101830.31
2022-08-09T05:09:00.614Z,101834.56
2022-08-09T05:11:30.686Z,101833.31
2022-08-09T05:14:06.036Z,101825.69
2022-08-09T05:16:58.367Z,101833.16
2022-08-09T05:19:25.838Z,101836.41
2022-08-09T05:21:55.190Z,101833.03
2022-08-09T05:24:26.258Z,101840.13
2022-08-09T05:26:53.400Z,101841.38
2022-08-09T05:29:23.838Z,101848.94
2022-08-09T05:31:57.013Z,101851.72
2022-08-09T05:34:31.100Z,101844.84
2022-08-09T05:37:04.876Z,101847.22
2022-08-09T05:39:43.716Z,101849.09
2022-08-09T05:42:20.671Z,101847.63
2022-08-09T05:44:51.286Z,101853.09
2022-08-09T05:47:19.842Z,101864.38
2022-08-09T05:50:26.883Z,101863.69
2022-08-09T05:52:43.605Z,101860.22
2022-08-09T05:55:21.641Z,101863.97
2022-08-09T05:57:56.387Z,101865.69
2022-08-09T06:00:27.002Z,101864.81
2022-08-09T06:03:01.923Z,101864.03
2022-08-09T06:05:57.100Z,101861.94
2022-08-09T06:08:19.805Z,101867.84
2022-08-09T06:10:53.829Z,101858.59
2022-08-09T06:13:22.057Z,101867.44
2022-08-09T06:15:51.361Z,101861.81
2022-08-09T06:18:24.808Z,101871.72
2022-08-09T06:20:57.659Z,101874.97
2022-08-09T06:23:57.581Z,101882.88
2022-08-09T06:26:20.893Z,101881.53
2022-08-09T06:28:59.513Z,101878.53
2022-08-09T06:31:31.373Z,101879.28
2022-08-09T06:34:07.342Z,101890.59
2022-08-09T06:36:34.770Z,101889.78
2022-08-09T06:39:02.721Z,101884.56
2022-08-09T06:42:08.143Z,101889.53
2022-08-09T06:44:26.507Z,101892.69
2022-08-09T06:46:55.259Z,101889.97
2022-08-09T06:49:44.461Z,101892.88
2022-08-09T06:52:12.000Z,101892.53
2022-08-09T06:54:41.644Z,101897.16
2022-08-09T06:57:09.453Z,101889.13
2022-08-09T07:00:48.643Z,101893.75
2022-08-09T07:02:30.751Z,101892.50
2022-08-09T07:04:58.686Z,101889.88
2022-08-09T07:08:00.807Z,101898.59
2022-08-09T07:10:29.673Z,101894.34
2022-08-09T07:12:59.389Z,101906.06
2022-08-09T07:16:38.544Z,101900.28
2022-08-09T07:18:15.027Z,101910.06
2022-08-09T07:20:44.491Z,101907.94
2022-08-09T07:23:19.133Z,101902.88
2022-08-09T07:25:52.544Z,101899.13
2022-08-09T07:28:31.088Z,101903.09
2022-08-09T07:31:04.739Z,101892.25
2022-08-09T07:33:52.874Z,101900.16
2022-08-09T07:36:20.401Z,101904.56
2022-08-09T07:38:58.167Z,101900.81
2022-08-09T07:41:27.994Z,101900.50
2022-08-09T07:44:00.585Z,101907.81
2022-08-09T07:46:28.120Z,101888.91
2022-08-09T07:48:59.638Z,101896.53
2022-08-09T07:52:05.878Z,101901.78
2022-08-09T07:54:15.577Z,101897.97
2022-08-09T07:56:49.528Z,101893.31
2022-08-09T07:59:25.226Z,101897.22
2022-08-09T08:02:01.203Z,101899.13
2022-08-09T08:04:31.856Z,101900.88
2022-08-09T08:07:27.116Z,101895.00
2022-08-09T08:09:54.915Z,101900.72
2022-08-09T08:12:43.703Z,101893.94
2022-08-09T08:15:17.458Z,101895.44
2022-08-09T08:17:54.732Z,101892.44
2022-08-09T08:20:28.931Z,101896.38
2022-08-09T08:23:06.923Z,101898.72
2022-08-09T08:25:49.883Z,101903.44
2022-08-09T08:28:25.592Z,101908.22
2022-08-09T08:31:14.395Z,101898.50
2022-08-09T08:33:53.016Z,101904.78
2022-08-09T08:36:29.797Z,101902.13
2022-08-09T08:38:59.853Z,101902.66
2022-08-09T08:41:41.728Z,101906.47
2022-08-09T08:44:27.248Z,101903.19
2022-08-09T08:47:02.406Z,101904.88
2022-08-09T08:49:46.850Z,101892.59
2022-08-09T08:52:57.387Z,101896.09
2022-08-09T08:55:23.054Z,101896.16
2022-08-09T08:57:56.466Z,101892.06
2022-08-09T09:00:30.331Z,101891.81
2022-08-09T09:03:11.999Z,101887.81
2022-08-09T09:05:59.906Z,101890.59
2022-08-09T09:08:38.050Z,101881.97
2022-08-09T09:11:13.655Z,101889.69
2022-08-09T09:13:56.526Z,101887.28
2022-08-09T09:16:30.741Z,101887.81
2022-08-09T09:22:04.261Z,101883.69
2022-08-09T09:24:37.188Z,101890.06
2022-08-09T09:27:06.906Z,101884.81
2022-08-09T09:30:08.510Z,101878.88
2022-08-09T09:32:32.345Z,101879.47
2022-08-09T09:35:10.520Z,101877.94
2022-08-09T09:37:41.015Z,101879.63
2022-08-09T09:40:10.181Z,101879.69
2022-08-09T09:42:39.368Z,101876.06
2022-08-09T09:45:14.398Z,101859.00
2022-08-09T09:47:58.723Z,101864.06
2022-08-09T09:50:49.697Z,101864.41
2022-08-09T09:53:34.416Z,101859.84
2022-08-09T09:56:20.150Z,101870.19
2022-08-09T09:58:58.964Z,101852.09
2022-08-09T10:01:31.179Z,101863.66
2022-08-09T10:04:16.093Z,101862.25
2022-08-09T10:06:51.806Z,101866.91
2022-08-09T10:09:23.867Z,101853.66
2022-08-09T10:12:11.919Z,101860.06
2022-08-09T10:14:47.894Z,101855.09
2022-08-09T10:17:50.701Z,101863.25
2022-08-09T10:20:27.409Z,101847.59
2022-08-09T10:23:23.960Z,101859.31
2022-08-09T10:26:07.626Z,101844.91
2022-08-09T10:28:40.218Z,101848.06
2022-08-09T10:32:27.434Z,101840.09
2022-08-09T10:34:08.704Z,101845.78
2022-08-09T10:36:39.893Z,101854.69
2022-08-09T10:39:15.651Z,101846.38
2022-08-09T10:41:48.006Z,101845.44
2022-08-09T10:44:19.516Z,101834.09
2022-08-09T10:47:04.120Z,101838.19
2022-08-09T10:50:03.766Z,101835.41
2022-08-09T10:53:00.132Z,101833.97
2022-08-09T10:55:55.264Z,101839.53
2022-08-09T10:58:37.639Z,101836.66
2022-08-09T11:03:02.559Z,101827.97
2022-08-09T11:04:20.063Z,101827.53
2022-08-09T11:07:00.030Z,101825.88
2022-08-09T11:09:41.286Z,101818.91
2022-08-09T11:12:29.725Z,101828.66
2022-08-09T11:15:24.289Z,101820.19
2022-08-09T11:18:03.681Z,101811.38
2022-08-09T11:20:42.227Z,101811.84
2022-08-09T11:23:11.624Z,101829.47
2022-08-09T11:25:47.544Z,101813.81
2022-08-09T11:28:53.940Z,101807.06
2022-08-09T11:31:49.466Z,101811.66
2022-08-09T11:34:24.845Z,101820.13
2022-08-09T11:36:53.077Z,101807.63
2022-08-09T11:39:20.516Z,101807.28
2022-08-09T11:41:48.878Z,101800.41
2022-08-09T11:44:16.262Z,101802.94
2022-08-09T11:47:00.362Z,101798.56
2022-08-09T11:50:57.034Z,101803.06
2022-08-09T11:53:15.940Z,101794.50
2022-08-09T11:55:53.127Z,101778.84
2022-08-09T11:58:32.313Z,101799.06
2022-08-09T12:01:09.057Z,101784.47
2022-08-09T12:03:57.447Z,101779.63
2022-08-09T12:06:32.556Z,101790.09
2022-08-09T12:09:19.555Z,101775.56
2022-08-09T12:12:05.935Z,101771.16
2022-08-09T12:15:07.526Z,101774.88
2022-08-09T12:17:34.508Z,101779.69
2022-08-09T12:20:16.787Z,101770.44
2022-08-09T12:22:56.330Z,101759.50
2022-08-09T12:25:36.668Z,101761.06
2022-08-09T12:28:58.726Z,101758.72
2022-08-09T12:31:02.902Z,101748.19
2022-08-09T12:33:59.335Z,101761.97
2022-08-09T12:36:32.217Z,101757.91
2022-08-09T12:39:02.254Z,101757.09
2022-08-09T12:41:39.044Z,101755.47
2022-08-09T12:44:12.623Z,101747.41
2022-08-09T12:46:48.972Z,101764.38
2022-08-09T12:49:18.187Z,101747.38
2022-08-09T12:52:01.637Z,101744.19
2022-08-09T12:55:03.257Z,101738.88
2022-08-09T12:57:40.179Z,101746.59
2022-08-09T13:00:17.724Z,101748.19
2022-08-09T13:03:00.386Z,101736.44
2022-08-09T13:06:11.316Z,101728.38
2022-08-09T13:08:39.850Z,101728.34
2022-08-09T13:11:24.233Z,101721.06
2022-08-09T13:14:41.898Z,101719.81
2022-08-09T13:16:46.120Z,101723.06
2022-08-09T13:20:10.010Z,101731.56
2022-08-09T13:22:37.548Z,101710.09
2022-08-09T13:25:14.330Z,101714.97
2022-08-09T13:27:48.620Z,101719.00
2022-08-09T13:30:48.997Z,101705.22
2022-08-09T13:33:22.555Z,101695.84
2022-08-09T13:36:38.708Z,101689.00
2022-08-09T13:38:56.715Z,101709.72
2022-08-09T13:41:55.912Z,101683.72
2022-08-09T13:44:16.405Z,101698.19
2022-08-09T13:47:26.576Z,101684.00
2022-08-09T13:49:39.701Z,101689.84
2022-08-09T13:52:20.878Z,101691.44
2022-08-09T13:54:59.397Z,101688.56
2022-08-09T13:57:36.289Z,101683.97
2022-08-09T14:00:12.093Z,101684.84
2022-08-09T14:02:42.596Z,101670.19
2022-08-09T14:05:58.389Z,101676.53
2022-08-09T14:08:17.645Z,101670.97
2022-08-09T14:10:50.350Z,101664.94
2022-08-09T14:14:14.681Z,101673.88
2022-08-09T14:16:18.584Z,101671.78
2022-08-09T14:18:50.229Z,101670.88
2022-08-09T14:21:22.279Z,101668.75
2022-08-09T14:23:56.641Z,101657.34
2022-08-09T14:26:31.596Z,101658.22
2022-08-09T14:29:02.661Z,101655.03
2022-08-09T14:31:49.443Z,101646.41
2022-08-09T14:34:30.991Z,101643.00
2022-08-09T14:37:06.618Z,101642.38
2022-08-09T14:39:47.316Z,101623.69
2022-08-09T14:42:40.335Z,101633.69
2022-08-09T14:46:39.805Z,101631.16
2022-08-09T14:47:57.860Z,101627.75
2022-08-09T14:50:34.689Z,101628.94
2022-08-09T14:53:12.197Z,101629.91
2022-08-09T14:55:42.393Z,101622.56
2022-08-09T14:58:18.298Z,101615.94
2022-08-09T15:00:48.372Z,101610.81
2022-08-09T15:03:20.544Z,101613.16
2022-08-09T15:05:52.334Z,101615.91
2022-08-09T15:08:24.261Z,101617.50
2022-08-09T15:11:01.222Z,101629.28
2022-08-09T15:13:48.375Z,101632.72
2022-08-09T15:16:17.102Z,101616.91
2022-08-09T15:18:44.333Z,101616.03
2022-08-09T15:21:56.203Z,101617.88
2022-08-09T15:24:15.314Z,101622.28
2022-08-09T15:26:46.751Z,101625.59
2022-08-09T15:31:01.413Z,101616.00
2022-08-09T15:32:02.143Z,101614.03
2022-08-09T15:34:34.524Z,101609.44
2022-08-09T15:37:23.622Z,101615.00
2022-08-09T15:39:53.632Z,101620.78
2022-08-09T15:42:23.147Z,101612.69
2022-08-09T15:44:51.531Z,101615.13
2022-08-09T15:47:22.918Z,101608.56
2022-08-09T15:50:04.496Z,101607.84
2022-08-09T15:52:34.771Z,101605.84
2022-08-09T15:55:04.049Z,101598.00
2022-08-09T15:57:35.233Z,101594.34
2022-08-09T16:00:25.918Z,101607.22
2022-08-09T16:02:56.087Z,101613.88
2022-08-09T16:05:47.659Z,101595.63
2022-08-09T16:08:30.405Z,101587.63
2022-08-09T16:11:02.671Z,101576.28
2022-08-09T16:14:04.156Z,101574.72
2022-08-09T16:16:28.265Z,101575.50
2022-08-09T16:18:56.222Z,101570.47
2022-08-09T16:21:25.576Z,101574.75
2022-08-09T16:23:58.276Z,101572.66
2022-08-09T16:26:34.610Z,101570.38
2022-08-09T16:29:11.055Z,101565.41
2022-08-09T16:32:18.468Z,101565.09
2022-08-09T16:34:54.568Z,101573.94
2022-08-09T16:37:54.651Z,101573.03
2022-08-09T16:40:12.163Z,101571.63
2022-08-09T16:42:45.466Z,101581.44
2022-08-09T16:45:19.842Z,101569.09
2022-08-09T16:48:42.029Z,101577.13
2022-08-09T16:50:38.421Z,101576.72
2022-08-09T16:53:08.738Z,101574.69
2022-08-09T16:56:01.530Z,101574.41
2022-08-09T16:58:24.071Z,101569.50
2022-08-09T17:00:51.445Z,101572.97
2022-08-09T17:03:21.875Z,101573.75
2022-08-09T17:06:07.111Z,101568.75
2022-08-09T17:08:58.881Z,101569.34
2022-08-09T17:11:39.998Z,101571.56
2022-08-09T17:14:26.214Z,101569.16
2022-08-09T17:16:59.976Z,101562.06
2022-08-09T17:19:46.386Z,101568.13
2022-08-09T17:22:24.990Z,101563.97
2022-08-09T17:25:03.495Z,101574.88
2022-08-09T17:27:33.906Z,101571.66
2022-08-09T17:30:04.901Z,101563.69
2022-08-09T17:32:38.007Z,101575.81
2022-08-09T17:35:11.892Z,101566.16
2022-08-09T17:38:02.643Z,101566.19
2022-08-09T17:40:33.243Z,101567.00
2022-08-09T17:43:33.154Z,101564.53
2022-08-09T17:46:02.969Z,101565.28
2022-08-09T17:48:39.003Z,101574.31
2022-08-09T17:51:17.456Z,101574.41
2022-08-09T17:53:52.815Z,101571.56
2022-08-09T17:56:29.096Z,101561.88
2022-08-09T17:59:03.399Z,101568.75
2022-08-09T18:02:03.865Z,101574.44
2022-08-09T18:04:26.482Z,101575.31
2022-08-09T18:06:55.004Z,101581.34
2022-08-09T18:09:40.560Z,101585.44
2022-08-09T18:12:19.761Z,101587.84
2022-08-09T18:14:54.531Z,101584.72
2022-08-09T18:17:27.687Z,101589.19
2022-08-09T18:20:55.678Z,101587.50
2022-08-09T18:23:05.572Z,101581.03
2022-08-09T18:25:50.783Z,101586.22
2022-08-09T18:30:35.655Z,101593.22
2022-08-09T18:31:10.680Z,101587.53
2022-08-09T18:33:38.062Z,101592.06
2022-08-09T18:36:14.189Z,101593.72
2022-08-09T18:38:55.132Z,101594.47
2022-08-09T18:41:27.958Z,101597.03
2022-08-09T18:43:55.391Z,101588.47
2022-08-09T18:46:51.425Z,101588.50
2022-08-09T18:49:10.004Z,101604.31
2022-08-09T18:51:38.723Z,101598.63
2022-08-09T18:54:28.437Z,101605.50
2022-08-09T18:56:57.270Z,101604.31
2022-08-09T18:59:48.796Z,101599.03
2022-08-09T19:02:18.106Z,101605.63
2022-08-09T19:04:47.520Z,101600.38
2022-08-09T19:07:16.682Z,101602.38
2022-08-09T19:10:15.447Z,101602.34
2022-08-09T19:12:36.943Z,101588.19
2022-08-09T19:15:07.039Z,101603.59
2022-08-09T19:17:47.578Z,101611.75
2022-08-09T19:20:22.749Z,101612.66
2022-08-09T19:22:50.485Z,101619.13
2022-08-09T19:25:41.826Z,101617.84
2022-08-09T19:28:13.321Z,101623.50
2022-08-09T19:30:44.353Z,101622.72
2022-08-09T19:33:19.537Z,101628.81
2022-08-09T19:35:58.442Z,101630.06
2022-08-09T19:38:27.539Z,101635.31
2022-08-09T19:40:57.625Z,101642.19
2022-08-09T19:43:57.884Z,101636.09
2022-08-09T19:46:34.169Z,101634.53
2022-08-09T19:50:08.754Z,101641.44
2022-08-09T19:51:55.730Z,101639.84
2022-08-09T19:54:29.763Z,101659.66
2022-08-09T19:56:58.672Z,101641.88
2022-08-09T19:59:39.992Z,101661.28
2022-08-09T20:04:07.340Z,101665.75
2022-08-09T20:05:11.782Z,101653.97
2022-08-09T20:07:59.278Z,101656.00
2022-08-09T20:10:34.663Z,101658.03
2022-08-09T20:13:05.856Z,101656.00
2022-08-09T20:19:54.849Z,101666.13
2022-08-09T20:24:08.153Z,101668.09
2022-08-09T20:30:27.862Z,101681.81
2022-08-09T20:33:28.431Z,101677.34
2022-08-09T20:36:31.293Z,101680.59
2022-08-09T20:42:53.361Z,101682.50
2022-08-09T20:46:33.797Z,101681.31
2022-08-09T20:49:53.852Z,101685.34
2022-08-09T21:00:22.820Z,101683.66
2022-08-09T21:03:19.592Z,101688.88
2022-08-09T21:06:06.620Z,101683.19
2022-08-09T21:09:13.627Z,101675.19
2022-08-09T21:16:04.879Z,101682.00
2022-08-09T21:20:17.158Z,101680.78
2022-08-09T21:22:52.583Z,101680.34
2022-08-09T21:26:17.902Z,101674.69
2022-08-09T21:29:16.783Z,101688.34
2022-08-09T21:32:33.168Z,101688.63
2022-08-09T21:35:51.140Z,101690.13
2022-08-09T21:39:58.354Z,101692.16
2022-08-09T21:46:06.080Z,101691.09
2022-08-09T21:58:53.622Z,101688.63
2022-08-09T22:02:00.697Z,101691.78
2022-08-09T22:05:35.559Z,101681.72
2022-08-09T22:09:27.256Z,101691.34
2022-08-09T22:15:34.857Z,101695.00
2022-08-09T22:18:54.390Z,101691.63
2022-08-09T22:22:02.001Z,101686.75
2022-08-09T22:24:53.522Z,101685.66
2022-08-09T22:27:45.194Z,101695.66
2022-08-09T22:34:14.551Z,101683.47
2022-08-09T22:37:22.281Z,101681.72
2022-08-09T22:48:05.001Z,101679.59
2022-08-09T22:48:35.189Z,101680.31
2022-08-09T22:54:27.210Z,101686.97
2022-08-09T22:57:38.604Z,101685.13
2022-08-09T23:00:32.166Z,101674.75
2022-08-09T23:04:03.623Z,101670.88
2022-08-09T23:08:21.797Z,101667.53
2022-08-09T23:11:35.179Z,101673.22
2022-08-09T23:14:37.246Z,101666.75
2022-08-09T23:17:36.592Z,101659.72
2022-08-09T23:20:36.974Z,101666.28
2022-08-09T23:23:09.366Z,101664.03
2022-08-09T23:25:59.970Z,101648.06
2022-08-09T23:28:58.708Z,101666.16
2022-08-09T23:31:57.954Z,101653.81
2022-08-09T23:34:44.288Z,101654.88
2022-08-09T23:40:45.873Z,101667.16
2022-08-09T23:44:41.548Z,101649.78
2022-08-09T23:47:32.539Z,101659.53
2022-08-09T23:50:49.238Z,101653.44
2022-08-09T23:54:17.441Z,101660.31
2022-08-09T23:57:16.419Z,101654.47
